Latch, Texas
Current Conditions -  °F | °C
As of 4:35 PM on Friday 19 Dec 2014 (Local Time) from KOSA Reporting Station
Overcast Overcast  
Wind Chill: 44°   Ceiling: 500
Heat Index: 46°   Visibility: 5mi
Dew Point: 45°   Wind: 5mph
Humidity: 94%   Direction: 20°NNE
Pressure: 30.18"   Gusts: NA
Location:  32.7353°N, 94.9492°W
Report Text: KOSA 192235Z AUTO 02004KT 5SM OVC005 08/07 A3018 RMK AO1 T00790070
Loading
Personal Weather Stations






























Interactive Weather Map New forecast layout! Learn more

10-Day Weather Forecast

Advertisements
Track Severe Weather on mobile